createdAt,value
2023-01-15T00:02:18.068Z,96.02
2023-01-15T00:04:45.553Z,96.17
2023-01-15T00:07:12.707Z,96.15
2023-01-15T00:09:39.858Z,95.50
2023-01-15T00:12:07.463Z,95.30
2023-01-15T00:14:34.630Z,94.41
2023-01-15T00:17:01.753Z,93.94
2023-01-15T00:19:29.137Z,94.17
2023-01-15T00:21:56.362Z,94.21
2023-01-15T00:24:41.875Z,93.74
2023-01-15T00:27:29.710Z,94.14
2023-01-15T00:29:56.965Z,94.35
2023-01-15T00:32:27.745Z,93.60
2023-01-15T00:34:55.899Z,95.36
2023-01-15T00:37:23.069Z,93.75
2023-01-15T00:39:50.463Z,93.98
2023-01-15T00:42:18.021Z,94.12
2023-01-15T00:44:46.772Z,93.44
2023-01-15T00:47:15.219Z,93.33
2023-01-15T00:49:43.106Z,93.44
2023-01-15T00:52:11.179Z,95.00
2023-01-15T00:54:38.768Z,93.77
2023-01-15T00:57:05.895Z,93.43
2023-01-15T00:59:33.071Z,94.05
2023-01-15T01:02:00.609Z,93.68
2023-01-15T01:04:27.950Z,96.00
2023-01-15T01:06:55.593Z,91.77
2023-01-15T01:09:23.032Z,92.54
2023-01-15T01:11:50.316Z,93.64
2023-01-15T01:14:17.481Z,92.85
2023-01-15T01:16:45.036Z,92.93
2023-01-15T01:19:20.762Z,93.08
2023-01-15T01:21:49.043Z,93.65
2023-01-15T01:24:22.365Z,93.70
2023-01-15T01:26:53.402Z,95.68
2023-01-15T01:29:22.686Z,92.25
2023-01-15T01:31:51.171Z,93.34
2023-01-15T01:34:18.754Z,95.37
2023-01-15T01:36:46.164Z,93.04
2023-01-15T01:39:16.186Z,92.99
2023-01-15T01:41:44.131Z,93.30
2023-01-15T01:44:33.083Z,92.73
2023-01-15T01:47:01.972Z,93.67
2023-01-15T01:49:29.428Z,93.91
2023-01-15T01:51:59.846Z,95.58
2023-01-15T01:54:29.429Z,94.74
2023-01-15T01:56:56.660Z,93.59
2023-01-15T01:59:25.294Z,93.50
2023-01-15T02:01:53.603Z,93.95
2023-01-15T02:04:22.846Z,93.64
2023-01-15T02:06:51.256Z,94.16
2023-01-15T02:09:18.840Z,93.23
2023-01-15T02:11:46.457Z,93.05
2023-01-15T02:14:18.009Z,94.11
2023-01-15T02:17:01.398Z,94.50
2023-01-15T02:19:47.674Z,93.65
2023-01-15T02:22:14.740Z,94.01
2023-01-15T02:24:45.111Z,92.88
2023-01-15T02:27:16.181Z,92.10
2023-01-15T02:29:52.246Z,91.78
2023-01-15T02:32:31.661Z,92.14
2023-01-15T02:35:06.058Z,94.10
2023-01-15T02:37:36.833Z,92.39
2023-01-15T02:40:07.316Z,92.84
2023-01-15T02:42:36.730Z,92.91
2023-01-15T02:45:07.967Z,92.96
2023-01-15T02:47:38.745Z,93.32
2023-01-15T02:50:09.614Z,93.90
2023-01-15T02:52:42.638Z,94.41
2023-01-15T02:55:35.350Z,93.24
2023-01-15T02:58:06.665Z,93.58
2023-01-15T03:00:36.569Z,96.89
2023-01-15T03:03:42.323Z,95.08
2023-01-15T03:06:24.293Z,93.75
2023-01-15T03:08:52.095Z,94.02
2023-01-15T03:11:20.152Z,94.99
2023-01-15T03:13:51.939Z,94.00
2023-01-15T03:16:35.486Z,96.15
2023-01-15T03:19:24.516Z,94.35
2023-01-15T03:21:57.132Z,92.93
2023-01-15T03:24:29.439Z,93.13
2023-01-15T03:26:57.829Z,93.86
2023-01-15T03:29:29.477Z,92.98
2023-01-15T03:31:57.104Z,92.24
2023-01-15T03:34:32.395Z,93.20
2023-01-15T03:36:59.842Z,93.30
2023-01-15T03:39:28.254Z,94.07
2023-01-15T03:42:05.016Z,94.37
2023-01-15T03:44:47.887Z,93.54
2023-01-15T03:47:27.312Z,93.39
2023-01-15T03:50:18.519Z,92.60
2023-01-15T03:52:49.375Z,92.27
2023-01-15T03:55:22.950Z,93.07
2023-01-15T03:57:58.155Z,92.97
2023-01-15T04:00:27.807Z,93.70
2023-01-15T04:02:56.760Z,93.77
2023-01-15T04:05:26.893Z,94.81
2023-01-15T04:07:54.963Z,95.17
2023-01-15T04:10:22.971Z,94.45
2023-01-15T04:12:50.451Z,93.49
2023-01-15T04:15:19.216Z,93.43
2023-01-15T04:17:46.866Z,94.10
2023-01-15T04:20:14.607Z,94.49
2023-01-15T04:22:41.962Z,94.12
2023-01-15T04:25:09.979Z,94.70
2023-01-15T04:27:37.447Z,94.85
2023-01-15T04:30:04.949Z,98.67
2023-01-15T04:32:32.311Z,94.05
2023-01-15T04:35:01.037Z,93.81
2023-01-15T04:37:28.100Z,94.10
2023-01-15T04:39:55.576Z,93.86
2023-01-15T04:42:41.364Z,93.50
2023-01-15T04:45:09.405Z,93.10
2023-01-15T04:47:36.573Z,93.38
2023-01-15T04:50:03.805Z,93.12
2023-01-15T04:52:31.224Z,94.27
2023-01-15T04:54:58.349Z,95.49
2023-01-15T04:57:25.479Z,94.83
2023-01-15T04:59:52.902Z,93.53
2023-01-15T05:02:20.122Z,93.59
2023-01-15T05:04:47.384Z,95.17
2023-01-15T05:07:14.919Z,94.17
2023-01-15T05:09:42.033Z,93.50
2023-01-15T05:12:09.095Z,92.79
2023-01-15T05:14:36.434Z,93.36
2023-01-15T05:17:03.611Z,92.37
2023-01-15T05:19:30.778Z,92.64
2023-01-15T05:21:58.137Z,93.39
2023-01-15T05:24:25.259Z,94.90
2023-01-15T05:26:52.442Z,92.92
2023-01-15T05:29:19.898Z,93.12
2023-01-15T05:31:47.029Z,94.84
2023-01-15T05:34:14.235Z,92.91
2023-01-15T05:36:41.947Z,93.45
2023-01-15T05:39:09.112Z,94.27
2023-01-15T05:41:51.471Z,93.27
2023-01-15T05:44:24.471Z,95.25
2023-01-15T05:46:53.653Z,93.86
2023-01-15T05:49:23.958Z,93.41
2023-01-15T05:51:51.684Z,93.96
2023-01-15T05:54:21.575Z,93.86
2023-01-15T05:56:49.226Z,94.33
2023-01-15T05:59:18.222Z,97.65
2023-01-15T06:01:45.379Z,94.39
2023-01-15T06:04:21.458Z,95.10
2023-01-15T06:06:50.061Z,95.86
2023-01-15T06:09:18.104Z,94.54
2023-01-15T06:11:45.524Z,95.75
2023-01-15T06:14:12.736Z,94.56
2023-01-15T06:16:41.448Z,94.66
2023-01-15T06:19:09.716Z,94.23
2023-01-15T06:21:36.916Z,94.23
2023-01-15T06:24:04.727Z,95.96
2023-01-15T06:26:33.342Z,93.85
2023-01-15T06:29:00.537Z,94.55
2023-01-15T06:31:28.157Z,94.60
2023-01-15T06:33:55.599Z,95.40
2023-01-15T06:36:24.569Z,96.15
2023-01-15T06:38:52.096Z,95.68
2023-01-15T06:41:40.498Z,95.51
2023-01-15T06:44:34.198Z,95.34
2023-01-15T06:47:23.819Z,96.11
2023-01-15T06:49:55.619Z,96.46
2023-01-15T06:52:24.167Z,95.72
2023-01-15T06:54:52.627Z,95.76
2023-01-15T06:57:19.885Z,95.66
2023-01-15T06:59:48.471Z,95.75
2023-01-15T07:02:15.887Z,96.05
2023-01-15T07:04:43.000Z,95.40
2023-01-15T07:07:10.167Z,96.81
2023-01-15T07:09:37.586Z,95.82
2023-01-15T07:12:04.811Z,95.63
2023-01-15T07:14:33.157Z,95.50
2023-01-15T07:17:00.651Z,95.50
2023-01-15T07:19:27.867Z,96.00
2023-01-15T07:21:55.116Z,95.92
2023-01-15T07:24:22.589Z,95.89
2023-01-15T07:26:49.818Z,97.37
2023-01-15T07:29:17.181Z,96.76
2023-01-15T07:31:44.598Z,95.88
2023-01-15T07:34:11.793Z,95.52
2023-01-15T07:36:38.991Z,96.33
2023-01-15T07:39:08.157Z,96.51
2023-01-15T07:41:54.212Z,97.56
2023-01-15T07:44:41.321Z,96.65
2023-01-15T07:47:52.936Z,95.02
2023-01-15T07:50:22.541Z,95.88
2023-01-15T07:52:52.831Z,97.27
2023-01-15T07:55:21.061Z,96.14
2023-01-15T07:57:48.180Z,96.33
2023-01-15T08:00:20.992Z,96.30
2023-01-15T08:02:50.705Z,97.40
2023-01-15T08:05:18.371Z,96.87
2023-01-15T08:07:45.770Z,95.54
2023-01-15T08:10:14.109Z,96.04
2023-01-15T08:13:00.561Z,95.72
2023-01-15T08:15:39.073Z,94.78
2023-01-15T08:18:07.111Z,94.36
2023-01-15T08:20:36.379Z,94.51
2023-01-15T08:23:03.483Z,94.41
2023-01-15T08:25:30.672Z,93.78
2023-01-15T08:28:02.282Z,94.66
2023-01-15T08:30:29.551Z,95.02
2023-01-15T08:33:02.337Z,94.69
2023-01-15T08:35:29.787Z,95.55
2023-01-15T08:37:56.860Z,95.80
2023-01-15T08:40:24.005Z,95.33
2023-01-15T08:42:51.354Z,97.62
2023-01-15T08:45:18.446Z,95.80
2023-01-15T08:47:45.511Z,95.00
2023-01-15T08:50:12.957Z,93.39
2023-01-15T08:52:40.054Z,93.12
2023-01-15T08:55:07.795Z,92.34
2023-01-15T08:57:35.614Z,92.26
2023-01-15T09:00:02.717Z,92.63
2023-01-15T09:02:30.877Z,93.37
2023-01-15T09:04:58.351Z,94.34
2023-01-15T09:07:25.540Z,92.54
2023-01-15T09:09:52.643Z,93.08
2023-01-15T09:12:20.147Z,93.49
2023-01-15T09:14:57.655Z,92.64
2023-01-15T09:17:31.495Z,92.10
2023-01-15T09:19:58.644Z,91.81
2023-01-15T09:22:30.066Z,91.73
2023-01-15T09:24:57.907Z,91.76
2023-01-15T09:27:25.217Z,94.94
2023-01-15T09:29:52.381Z,92.40
2023-01-15T09:32:19.753Z,93.65
2023-01-15T09:34:46.834Z,91.67
2023-01-15T09:37:14.000Z,92.89
2023-01-15T09:39:41.377Z,93.66
2023-01-15T09:42:17.512Z,93.39
2023-01-15T09:44:52.786Z,93.84
2023-01-15T09:47:39.860Z,93.29
2023-01-15T09:50:41.096Z,92.03
2023-01-15T09:53:23.880Z,92.46
2023-01-15T09:55:52.713Z,92.81
2023-01-15T09:58:31.518Z,92.83
2023-01-15T10:00:59.819Z,90.83
2023-01-15T10:03:56.841Z,91.01
2023-01-15T10:06:29.679Z,90.45
2023-01-15T10:09:11.497Z,91.06
2023-01-15T10:12:01.808Z,91.11
2023-01-15T10:14:39.485Z,89.10
2023-01-15T10:17:18.271Z,89.08
2023-01-15T10:19:45.718Z,89.93
2023-01-15T10:22:45.835Z,90.59
2023-01-15T10:25:16.800Z,92.93
2023-01-15T10:27:48.754Z,90.92
2023-01-15T10:30:37.531Z,90.07
2023-01-15T10:33:22.147Z,89.46
2023-01-15T10:36:10.665Z,90.14
2023-01-15T10:39:00.118Z,87.83
2023-01-15T10:41:55.658Z,88.25
2023-01-15T10:45:01.534Z,89.09
2023-01-15T10:47:39.312Z,88.12
2023-01-15T10:50:17.255Z,87.01
2023-01-15T10:52:48.644Z,87.70
2023-01-15T10:55:25.152Z,87.59
2023-01-15T10:58:10.261Z,85.91
2023-01-15T11:00:39.008Z,87.62
2023-01-15T11:03:18.230Z,86.34
2023-01-15T11:05:48.882Z,86.02
2023-01-15T11:09:08.446Z,86.21
2023-01-15T11:11:59.538Z,85.85
2023-01-15T11:14:55.882Z,86.77
2023-01-15T11:17:44.805Z,86.44
2023-01-15T11:20:25.432Z,85.72
2023-01-15T11:22:53.079Z,84.93
2023-01-15T11:25:31.739Z,84.87
2023-01-15T11:28:01.631Z,84.10
2023-01-15T11:30:31.776Z,84.33
2023-01-15T11:33:06.502Z,84.28
2023-01-15T11:35:34.849Z,84.76
2023-01-15T11:38:06.776Z,83.92
2023-01-15T11:40:34.582Z,85.21
2023-01-15T11:43:20.331Z,84.00
2023-01-15T11:46:08.724Z,85.96
2023-01-15T11:49:05.779Z,84.83
2023-01-15T11:51:42.715Z,84.20
2023-01-15T11:54:12.900Z,83.94
2023-01-15T11:56:43.346Z,81.97
2023-01-15T11:59:12.872Z,82.74
2023-01-15T12:01:50.415Z,82.29
2023-01-15T12:04:37.435Z,82.50
2023-01-15T12:07:06.419Z,82.72
2023-01-15T12:09:39.848Z,83.58
2023-01-15T12:12:13.137Z,83.44
2023-01-15T12:14:49.684Z,83.47
2023-01-15T12:17:32.096Z,81.53
2023-01-15T12:20:46.889Z,81.87
2023-01-15T12:23:49.002Z,81.90
2023-01-15T12:26:26.636Z,81.63
2023-01-15T12:29:09.445Z,80.76
2023-01-15T12:31:47.033Z,83.17
2023-01-15T12:34:32.368Z,79.29
2023-01-15T12:37:06.655Z,79.56
2023-01-15T12:39:46.595Z,79.10
2023-01-15T12:42:36.173Z,80.65
2023-01-15T12:45:07.854Z,79.05
2023-01-15T12:47:45.903Z,79.69
2023-01-15T12:50:22.430Z,78.02
2023-01-15T12:52:54.528Z,76.83
2023-01-15T12:55:34.705Z,78.28
2023-01-15T12:58:03.211Z,79.97
2023-01-15T13:00:43.356Z,78.76
2023-01-15T13:03:55.852Z,78.54
2023-01-15T13:06:25.665Z,79.87
2023-01-15T13:09:02.864Z,78.80
2023-01-15T13:11:30.055Z,79.54
2023-01-15T13:14:00.119Z,79.25
2023-01-15T13:16:35.840Z,78.92
2023-01-15T13:19:09.301Z,77.74
2023-01-15T13:21:39.146Z,78.83
2023-01-15T13:24:37.726Z,77.15
2023-01-15T13:27:29.534Z,76.61
2023-01-15T13:30:21.485Z,75.91
2023-01-15T13:32:51.989Z,75.36
2023-01-15T13:35:39.601Z,76.25
2023-01-15T13:38:16.970Z,76.63
2023-01-15T13:40:50.420Z,76.80
2023-01-15T13:43:43.618Z,74.98
2023-01-15T13:46:13.669Z,73.77
2023-01-15T13:48:44.524Z,76.00
2023-01-15T13:51:39.196Z,74.79
2023-01-15T13:54:14.323Z,73.38
2023-01-15T13:56:42.044Z,74.07
2023-01-15T13:59:38.616Z,73.66
2023-01-15T14:02:25.745Z,75.03
2023-01-15T14:04:53.832Z,75.53
2023-01-15T14:07:31.008Z,74.58
2023-01-15T14:10:17.137Z,75.87
2023-01-15T14:13:02.816Z,74.94
2023-01-15T14:16:01.841Z,74.62
2023-01-15T14:19:08.143Z,74.28
2023-01-15T14:21:48.835Z,75.87
2023-01-15T14:24:34.703Z,74.52
2023-01-15T14:27:08.205Z,73.91
2023-01-15T14:29:38.228Z,76.51
2023-01-15T14:32:18.452Z,75.40
2023-01-15T14:34:54.955Z,75.03
2023-01-15T14:37:26.748Z,75.13
2023-01-15T14:39:58.806Z,75.15
2023-01-15T14:42:48.828Z,75.88
2023-01-15T14:45:50.024Z,75.77
2023-01-15T14:48:29.641Z,76.72
2023-01-15T14:51:12.691Z,76.03
2023-01-15T14:53:45.033Z,77.94
2023-01-15T14:56:19.663Z,77.82
2023-01-15T14:58:53.159Z,76.52
2023-01-15T15:01:38.484Z,77.04
2023-01-15T15:04:13.800Z,77.37
2023-01-15T15:06:47.705Z,78.18
2023-01-15T15:09:27.002Z,76.53
2023-01-15T15:12:13.543Z,77.20
2023-01-15T15:14:41.031Z,77.41
2023-01-15T15:17:22.083Z,77.42
2023-01-15T15:19:57.437Z,76.95
2023-01-15T15:22:28.783Z,76.00
2023-01-15T15:24:56.632Z,75.91
2023-01-15T15:27:24.437Z,76.92
2023-01-15T15:29:53.405Z,77.05
2023-01-15T15:32:22.448Z,77.61
2023-01-15T15:34:51.463Z,78.51
2023-01-15T15:37:27.371Z,78.34
2023-01-15T15:40:17.747Z,79.27
2023-01-15T15:43:54.686Z,78.25
2023-01-15T15:46:46.765Z,78.95
2023-01-15T15:49:14.571Z,79.90
2023-01-15T15:51:48.985Z,80.20
2023-01-15T15:54:21.495Z,80.15
2023-01-15T15:57:07.080Z,80.20
2023-01-15T15:59:39.135Z,79.83
2023-01-15T16:02:21.669Z,80.31
2023-01-15T16:04:53.869Z,80.50
2023-01-15T16:07:29.768Z,81.33
2023-01-15T16:09:59.747Z,81.76
2023-01-15T16:12:31.937Z,81.65
2023-01-15T16:14:59.790Z,81.40
2023-01-15T16:17:28.098Z,81.87
2023-01-15T16:19:56.755Z,81.98
2023-01-15T16:22:44.174Z,81.84
2023-01-15T16:25:26.132Z,81.99
2023-01-15T16:27:53.744Z,82.61
2023-01-15T16:30:21.079Z,83.07
2023-01-15T16:32:49.277Z,83.17
2023-01-15T16:35:20.307Z,84.25
2023-01-15T16:37:49.839Z,84.39
2023-01-15T16:40:28.001Z,84.86
2023-01-15T16:43:04.236Z,84.96
2023-01-15T16:45:32.135Z,85.86
2023-01-15T16:48:08.264Z,86.03
2023-01-15T16:50:37.685Z,86.09
2023-01-15T16:53:06.665Z,86.75
2023-01-15T16:55:33.667Z,86.79
2023-01-15T16:58:22.430Z,86.51
2023-01-15T17:00:55.538Z,86.97
2023-01-15T17:03:25.121Z,87.63
2023-01-15T17:05:56.202Z,87.75
2023-01-15T17:08:38.704Z,88.94
2023-01-15T17:11:15.926Z,90.26
2023-01-15T17:13:43.333Z,90.17
2023-01-15T17:16:13.157Z,90.52
2023-01-15T17:18:40.575Z,89.88
2023-01-15T17:21:14.339Z,90.22
2023-01-15T17:23:42.986Z,90.28
2023-01-15T17:26:21.890Z,90.91
2023-01-15T17:28:50.200Z,90.61
2023-01-15T17:31:34.156Z,90.37
2023-01-15T17:34:02.597Z,89.82
2023-01-15T17:36:30.552Z,90.63
2023-01-15T17:38:57.716Z,90.71
2023-01-15T17:41:24.959Z,91.10
2023-01-15T17:43:52.445Z,90.73
2023-01-15T17:46:19.624Z,90.46
2023-01-15T17:48:46.761Z,90.62
2023-01-15T17:51:15.670Z,91.67
2023-01-15T17:53:43.144Z,91.74
2023-01-15T17:56:28.718Z,91.89
2023-01-15T17:59:14.140Z,92.89
2023-01-15T18:02:02.684Z,93.19
2023-01-15T18:04:52.187Z,92.63
2023-01-15T18:07:21.712Z,92.69
2023-01-15T18:09:50.409Z,92.29
2023-01-15T18:12:17.530Z,90.93
2023-01-15T18:14:44.744Z,90.39
2023-01-15T18:17:12.188Z,89.84
2023-01-15T18:19:39.340Z,89.40
2023-01-15T18:22:06.464Z,88.99
2023-01-15T18:24:33.914Z,89.94
2023-01-15T18:27:00.987Z,90.02
2023-01-15T18:29:28.256Z,90.93
2023-01-15T18:31:55.658Z,91.30
2023-01-15T18:34:22.832Z,92.30
2023-01-15T18:36:50.041Z,92.93
2023-01-15T18:39:17.530Z,93.77
2023-01-15T18:41:44.649Z,94.66
2023-01-15T18:44:32.964Z,94.82
2023-01-15T18:47:12.630Z,95.34
2023-01-15T18:49:40.945Z,97.16
2023-01-15T18:52:28.202Z,97.74
2023-01-15T18:54:55.414Z,97.52
2023-01-15T18:57:23.179Z,98.58
2023-01-15T18:59:50.668Z,98.74
2023-01-15T19:02:19.314Z,99.19
2023-01-15T19:04:47.864Z,99.23
2023-01-15T19:07:15.799Z,99.62
2023-01-15T19:09:42.887Z,99.58
2023-01-15T19:12:10.548Z,100.00
2023-01-15T19:14:55.905Z,100.00
2023-01-15T19:17:43.717Z,100.00
2023-01-15T19:20:16.451Z,99.73
2023-01-15T19:22:59.197Z,98.96
2023-01-15T19:25:31.719Z,99.06
2023-01-15T19:27:59.706Z,99.64
2023-01-15T19:30:27.795Z,100.00
2023-01-15T19:32:55.721Z,100.00
2023-01-15T19:35:23.104Z,100.00
2023-01-15T19:37:50.257Z,100.00
2023-01-15T19:40:22.049Z,100.00
2023-01-15T19:43:09.538Z,100.00
2023-01-15T19:46:00.509Z,100.00
2023-01-15T19:49:00.087Z,100.00
2023-01-15T19:51:47.125Z,100.00
2023-01-15T19:54:14.953Z,100.00
2023-01-15T19:56:42.492Z,100.00
2023-01-15T19:59:09.542Z,100.00
2023-01-15T20:01:37.157Z,100.00
2023-01-15T20:04:04.765Z,100.00
2023-01-15T20:06:31.924Z,100.00
2023-01-15T20:08:59.141Z,100.00
2023-01-15T20:11:46.509Z,100.00
2023-01-15T20:14:13.811Z,100.00
2023-01-15T20:16:41.352Z,100.00
2023-01-15T20:19:08.469Z,100.00
2023-01-15T20:21:35.557Z,100.00
2023-01-15T20:24:05.310Z,100.00
2023-01-15T20:26:32.383Z,99.62
2023-01-15T20:28:59.464Z,99.85
2023-01-15T20:31:27.645Z,99.76
2023-01-15T20:33:57.727Z,100.00
2023-01-15T20:36:24.767Z,100.00
2023-01-15T20:38:52.163Z,99.46
2023-01-15T20:41:37.479Z,98.62
2023-01-15T20:44:23.912Z,99.26
2023-01-15T20:46:51.540Z,99.43
2023-01-15T20:49:25.173Z,99.58
2023-01-15T20:51:52.886Z,99.58
2023-01-15T20:54:21.448Z,99.51
2023-01-15T20:56:48.518Z,100.00
2023-01-15T20:59:15.575Z,100.00
2023-01-15T21:01:43.150Z,100.00
2023-01-15T21:04:10.695Z,100.00
2023-01-15T21:06:37.870Z,100.00
2023-01-15T21:09:06.054Z,100.00
2023-01-15T21:11:33.183Z,100.00
2023-01-15T21:14:00.230Z,100.00
2023-01-15T21:16:27.706Z,100.00
2023-01-15T21:18:54.826Z,100.00
2023-01-15T21:21:22.696Z,100.00
2023-01-15T21:23:50.387Z,100.00
2023-01-15T21:26:17.687Z,100.00
2023-01-15T21:28:44.853Z,100.00
2023-01-15T21:31:14.298Z,100.00
2023-01-15T21:33:41.647Z,100.00
2023-01-15T21:36:11.374Z,100.00
2023-01-15T21:38:39.195Z,100.00
2023-01-15T21:41:12.297Z,100.00
2023-01-15T21:43:59.055Z,100.00
2023-01-15T21:46:29.269Z,100.00
2023-01-15T21:48:58.467Z,100.00
2023-01-15T21:51:26.785Z,100.00
2023-01-15T21:53:54.253Z,100.00
2023-01-15T21:56:21.726Z,100.00
2023-01-15T21:58:48.794Z,100.00
2023-01-15T22:01:18.035Z,100.00
2023-01-15T22:03:46.116Z,100.00
2023-01-15T22:06:13.318Z,100.00
2023-01-15T22:08:40.616Z,100.00
2023-01-15T22:11:09.870Z,100.00
2023-01-15T22:13:38.071Z,100.00
2023-01-15T22:16:05.457Z,100.00
2023-01-15T22:18:33.877Z,100.00
2023-01-15T22:21:02.146Z,100.00
2023-01-15T22:23:29.406Z,100.00
2023-01-15T22:25:56.796Z,100.00
2023-01-15T22:28:23.952Z,100.00
2023-01-15T22:30:51.132Z,100.00
2023-01-15T22:33:18.623Z,100.00
2023-01-15T22:35:56.244Z,100.00
2023-01-15T22:38:23.674Z,100.00
2023-01-15T22:40:50.892Z,100.00
2023-01-15T22:43:18.223Z,100.00
2023-01-15T22:45:45.619Z,100.00
2023-01-15T22:48:12.817Z,100.00
2023-01-15T22:50:40.077Z,100.00
2023-01-15T22:53:07.759Z,100.00
2023-01-15T22:55:34.889Z,100.00
2023-01-15T22:58:02.102Z,100.00
2023-01-15T23:00:29.466Z,100.00
2023-01-15T23:03:04.669Z,100.00
2023-01-15T23:05:37.121Z,100.00
2023-01-15T23:08:04.356Z,100.00
2023-01-15T23:10:31.728Z,100.00
2023-01-15T23:12:58.809Z,100.00
2023-01-15T23:15:25.929Z,100.00
2023-01-15T23:17:53.249Z,100.00
2023-01-15T23:20:20.371Z,100.00
2023-01-15T23:22:47.444Z,100.00
2023-01-15T23:25:14.862Z,100.00
2023-01-15T23:27:41.957Z,100.00
2023-01-15T23:30:09.792Z,100.00
2023-01-15T23:32:39.614Z,100.00
2023-01-15T23:35:07.876Z,100.00
2023-01-15T23:37:34.954Z,100.00
2023-01-15T23:40:02.367Z,100.00
2023-01-15T23:42:48.147Z,100.00
2023-01-15T23:45:33.842Z,100.00
2023-01-15T23:48:00.960Z,100.00
2023-01-15T23:50:28.289Z,100.00
2023-01-15T23:52:55.369Z,100.00
2023-01-15T23:55:22.496Z,100.00
2023-01-15T23:57:49.858Z,100.00
